Time;durP1;ratioP1;P1;durP2;ratioP2;P2;SDS_P1;SDS_P2;PMS_P1;PMS_P2;Temp;Humidity;BMP_temperature;BMP_pressure;BME280_temperature;BME280_humidity;BME280_pressure;Samples;Min_cycle;Max_cycle;Signal;HPM_P1;HPM_P2
2022/12/17 13:08:18;;;;;;;46.93;33.27;;;-3.40;99.90;;;;;;4873890;29;20473;-79
2022/12/17 13:10:45;;;;;;;45.33;33.30;;;-3.40;99.90;;;;;;4877113;29;20569;-79
2022/12/17 13:13:19;;;;;;;50.23;34.07;;;-3.40;99.90;;;;;;4887426;29;20450;-78
2022/12/17 13:15:49;;;;;;;47.90;33.80;;;-3.30;99.90;;;;;;4886846;29;20462;-79
2022/12/17 13:18:26;;;;;;;45.93;33.43;;;-3.20;99.90;;;;;;4887797;29;21034;-79
2022/12/17 13:20:59;;;;;;;49.07;34.50;;;-3.20;99.90;;;;;;4874814;29;20961;-83
2022/12/17 13:23:30;;;;;;;46.70;34.07;;;-3.30;99.90;;;;;;4887172;29;20464;-80
2022/12/17 13:26:20;;;;;;;44.27;33.40;;;-3.50;99.90;;;;;;4875575;29;20453;-79
2022/12/17 13:29:03;;;;;;;50.33;35.27;;;-3.40;99.90;;;;;;4880103;29;20542;-79
2022/12/17 13:31:41;;;;;;;54.77;35.27;;;-3.50;99.90;;;;;;4881362;29;20484;-80
2022/12/17 13:34:17;;;;;;;47.60;34.73;;;-3.50;99.90;;;;;;4894229;29;20444;-79
2022/12/17 13:36:51;;;;;;;48.00;35.33;;;-3.30;99.90;;;;;;4887033;29;20511;-78
2022/12/17 13:39:31;;;;;;;53.43;35.90;;;-3.40;99.90;;;;;;4888668;29;20453;-79
2022/12/17 13:41:59;;;;;;;53.83;36.90;;;-3.50;99.90;;;;;;4887108;29;20476;-79
2022/12/17 13:44:29;;;;;;;49.63;35.90;;;-3.60;99.90;;;;;;4889688;29;20452;-79
2022/12/17 13:46:56;;;;;;;49.00;35.63;;;-3.70;99.90;;;;;;4889798;29;20462;-79
2022/12/17 13:49:26;;;;;;;64.03;38.70;;;-3.70;99.90;;;;;;4888582;29;20460;-80
2022/12/17 13:52:03;;;;;;;51.23;37.17;;;-3.70;99.90;;;;;;4890407;29;20486;-79
2022/12/17 13:54:31;;;;;;;52.17;37.13;;;-3.80;99.90;;;;;;4876827;29;20453;-81
2022/12/17 13:57:08;;;;;;;50.90;35.87;;;-3.70;99.90;;;;;;4889119;29;20459;-80
2022/12/17 13:59:35;;;;;;;49.77;36.13;;;-3.80;99.90;;;;;;4894758;29;20550;-83
2022/12/17 14:02:03;;;;;;;55.40;38.23;;;-3.90;99.90;;;;;;4889148;29;21117;-82
2022/12/17 14:04:31;;;;;;;52.30;36.57;;;-4.00;99.90;;;;;;4890830;29;20441;-83
2022/12/17 14:07:00;;;;;;;56.50;38.33;;;-4.10;99.90;;;;;;4890812;29;20437;-82
2022/12/17 14:09:32;;;;;;;55.43;39.10;;;-4.20;99.90;;;;;;4889822;29;20445;-81
2022/12/17 14:14:48;;;;;;;54.77;37.00;;;-4.20;99.90;;;;;;4874870;29;20437;-80
2022/12/17 14:17:17;;;;;;;57.80;37.63;;;-4.20;99.90;;;;;;4893794;29;20517;-78
2022/12/17 14:19:46;;;;;;;58.83;39.57;;;-4.20;99.90;;;;;;4895000;29;20441;-77
2022/12/17 14:22:18;;;;;;;57.93;38.37;;;-4.10;99.90;;;;;;4897788;29;20458;-77
2022/12/17 14:24:45;;;;;;;57.07;36.90;;;-4.20;99.90;;;;;;4892558;29;20454;-78
2022/12/17 14:27:24;;;;;;;54.07;38.83;;;-4.20;99.90;;;;;;4889078;29;20438;-79
2022/12/17 14:29:51;;;;;;;63.20;40.03;;;-4.30;99.90;;;;;;4868275;29;20465;-79
2022/12/17 14:32:24;;;;;;;59.50;38.67;;;-4.30;99.90;;;;;;4880927;29;20836;-79
2022/12/17 14:34:52;;;;;;;59.10;40.33;;;-4.30;99.90;;;;;;4875515;29;20452;-78
2022/12/17 14:37:23;;;;;;;57.33;39.57;;;-4.20;99.90;;;;;;4886415;29;20464;-79
2022/12/17 14:39:50;;;;;;;60.50;40.67;;;-4.30;99.90;;;;;;4890807;29;20448;-79
2022/12/17 14:42:28;;;;;;;66.67;42.53;;;-4.40;99.90;;;;;;4886933;29;20504;-79
2022/12/17 14:44:58;;;;;;;61.87;40.80;;;-4.40;99.90;;;;;;4891283;29;20485;-80
2022/12/17 14:47:27;;;;;;;64.10;39.80;;;-4.30;99.90;;;;;;4886503;29;20457;-80
2022/12/17 14:50:03;;;;;;;64.87;42.60;;;-4.30;99.90;;;;;;4892919;29;20535;-79
2022/12/17 14:52:40;;;;;;;61.50;41.33;;;-4.30;99.90;;;;;;4888511;29;20569;-80
2022/12/17 14:55:29;;;;;;;63.97;42.27;;;-4.30;99.90;;;;;;4895322;29;20453;-79
2022/12/17 14:58:08;;;;;;;65.27;40.93;;;-4.30;99.90;;;;;;4884920;29;20457;-78
2022/12/17 15:00:37;;;;;;;65.10;41.13;;;-4.40;99.90;;;;;;4875725;29;20508;-79
2022/12/17 15:03:05;;;;;;;71.23;40.50;;;-4.50;99.90;;;;;;4886006;29;20446;-79
2022/12/17 15:05:35;;;;;;;73.47;43.20;;;-4.60;99.90;;;;;;4889563;29;20531;-79
2022/12/17 15:08:02;;;;;;;68.87;41.53;;;-4.60;99.90;;;;;;4878513;29;20490;-78
2022/12/17 15:10:29;;;;;;;62.67;39.17;;;-4.70;99.90;;;;;;4876289;29;20876;-79
2022/12/17 15:12:56;;;;;;;66.50;41.10;;;-4.60;99.90;;;;;;4884840;29;20536;-80
2022/12/17 15:15:23;;;;;;;61.87;39.53;;;-4.60;99.90;;;;;;4887360;29;20460;-79
2022/12/17 15:17:50;;;;;;;57.30;38.50;;;-4.50;99.90;;;;;;4887420;29;20480;-79
2022/12/17 15:20:19;;;;;;;62.67;39.80;;;-4.40;99.90;;;;;;4884756;29;20459;-79
2022/12/17 15:22:48;;;;;;;69.67;40.83;;;-4.40;99.90;;;;;;4882597;29;20477;-82
2022/12/17 15:25:17;;;;;;;63.67;41.57;;;-4.40;99.90;;;;;;4891530;29;20458;-81
2022/12/17 15:27:45;;;;;;;65.93;41.33;;;-4.40;99.90;;;;;;4883672;29;20540;-83
2022/12/17 15:30:14;;;;;;;67.83;42.17;;;-4.30;99.90;;;;;;4889196;29;20449;-83
2022/12/17 15:32:42;;;;;;;67.13;42.70;;;-4.40;99.90;;;;;;4886053;29;20492;-83
2022/12/17 15:35:11;;;;;;;68.50;41.83;;;-4.50;99.90;;;;;;4889633;29;20445;-82
2022/12/17 15:37:38;;;;;;;78.60;44.53;;;-4.60;99.90;;;;;;4889034;29;20453;-82
2022/12/17 15:40:09;;;;;;;65.80;40.90;;;-4.60;99.90;;;;;;4885309;29;20454;-83
2022/12/17 15:45:22;;;;;;;62.17;40.93;;;-4.70;99.90;;;;;;4888755;29;20539;-83
2022/12/17 15:47:49;;;;;;;62.70;41.43;;;-4.70;99.90;;;;;;4891032;29;20501;-83
2022/12/17 15:50:16;;;;;;;58.30;38.37;;;-4.60;99.90;;;;;;4890108;29;20517;-83
2022/12/17 15:52:43;;;;;;;68.13;43.70;;;-4.60;99.90;;;;;;4891852;29;21083;-84
2022/12/17 15:55:12;;;;;;;67.13;41.93;;;-4.60;99.90;;;;;;4893282;29;20471;-83
2022/12/17 15:57:38;;;;;;;62.90;41.10;;;-4.60;99.90;;;;;;4888315;29;20461;-80
2022/12/17 16:00:06;;;;;;;64.00;40.40;;;-4.60;99.90;;;;;;4892995;29;20829;-81
2022/12/17 16:02:33;;;;;;;67.23;43.10;;;-4.70;99.90;;;;;;4893306;29;20908;-83
2022/12/17 16:05:01;;;;;;;72.30;42.93;;;-4.70;99.90;;;;;;4887891;29;20520;-81
2022/12/17 16:07:27;;;;;;;70.83;41.90;;;-4.80;99.90;;;;;;4880494;29;20505;-79
2022/12/17 16:09:54;;;;;;;64.33;40.03;;;-4.80;99.90;;;;;;4892619;29;20464;-79
2022/12/17 16:12:22;;;;;;;67.07;41.03;;;-4.80;99.90;;;;;;4887290;29;20485;-79
2022/12/17 16:14:49;;;;;;;66.97;41.13;;;-4.80;99.90;;;;;;4889906;29;20461;-80
2022/12/17 16:17:16;;;;;;;69.60;40.93;;;-4.80;99.90;;;;;;4890086;29;20450;-79
2022/12/17 16:19:43;;;;;;;70.77;42.17;;;-4.70;99.90;;;;;;4890096;29;20973;-79
2022/12/17 16:22:10;;;;;;;78.13;44.97;;;-4.70;99.90;;;;;;4888172;29;20514;-80
2022/12/17 16:24:37;;;;;;;78.73;44.20;;;-4.70;99.90;;;;;;4879502;29;20458;-80
2022/12/17 16:27:04;;;;;;;82.40;45.43;;;-4.70;99.90;;;;;;4879109;29;20499;-80
2022/12/17 16:29:32;;;;;;;77.30;44.80;;;-4.70;99.90;;;;;;4887581;29;20887;-79
2022/12/17 16:31:59;;;;;;;80.40;45.00;;;-4.60;99.90;;;;;;4894527;29;20456;-80
2022/12/17 16:34:26;;;;;;;81.10;45.23;;;-4.60;99.90;;;;;;4886596;29;20458;-80
2022/12/17 16:36:53;;;;;;;67.43;42.70;;;-4.70;99.90;;;;;;4894329;29;20453;-80
2022/12/17 16:39:20;;;;;;;83.50;43.87;;;-4.70;99.90;;;;;;4888590;29;20830;-79
2022/12/17 16:41:47;;;;;;;73.13;41.07;;;-4.70;99.90;;;;;;4890773;29;20521;-80
2022/12/17 16:44:14;;;;;;;66.37;42.47;;;-4.70;99.90;;;;;;4889620;29;20463;-81
2022/12/17 16:46:45;;;;;;;75.90;43.23;;;-4.70;99.90;;;;;;4890862;29;20555;-82
2022/12/17 16:49:14;;;;;;;77.13;45.17;;;-4.80;99.90;;;;;;4892033;29;20466;-83
2022/12/17 16:51:49;;;;;;;85.43;48.70;;;-4.90;99.90;;;;;;4886868;29;20487;-86
2022/12/17 16:54:18;;;;;;;79.53;43.30;;;-4.80;99.90;;;;;;4886674;29;20547;-79
2022/12/17 16:56:46;;;;;;;81.87;45.73;;;-4.80;99.90;;;;;;4884239;29;20461;-78
2022/12/17 16:59:15;;;;;;;77.87;43.27;;;-4.80;99.90;;;;;;4891246;29;20460;-79
2022/12/17 17:01:45;;;;;;;77.07;42.47;;;-4.90;99.90;;;;;;4881938;29;20499;-78
2022/12/17 17:04:13;;;;;;;77.17;43.60;;;-4.80;99.90;;;;;;4891078;29;20969;-79
2022/12/17 17:06:40;;;;;;;68.87;42.90;;;-4.80;99.90;;;;;;4887190;29;20445;-79
2022/12/17 17:09:08;;;;;;;92.37;47.20;;;-4.90;99.90;;;;;;4896491;29;20529;-78
2022/12/17 17:11:35;;;;;;;78.77;46.53;;;-4.80;99.90;;;;;;4885619;29;20545;-79
2022/12/17 17:14:02;;;;;;;85.70;47.43;;;-4.90;99.90;;;;;;4878755;29;20541;-78
2022/12/17 17:16:29;;;;;;;76.17;44.13;;;-4.90;99.90;;;;;;4884555;29;20975;-78
2022/12/17 17:18:57;;;;;;;82.60;44.63;;;-4.90;99.90;;;;;;4882166;29;20966;-79
2022/12/17 17:21:27;;;;;;;73.87;44.00;;;-4.90;99.90;;;;;;4888789;29;20473;-78
2022/12/17 17:23:57;;;;;;;97.40;47.10;;;-4.80;99.90;;;;;;4887271;29;20444;-79
2022/12/17 17:26:24;;;;;;;73.03;43.67;;;-4.90;99.90;;;;;;4890782;29;20436;-79
2022/12/17 17:28:51;;;;;;;65.87;41.63;;;-4.90;99.90;;;;;;4885674;29;20465;-78
2022/12/17 17:31:19;;;;;;;61.83;40.90;;;-4.90;99.90;;;;;;4885658;29;20568;-79
2022/12/17 17:33:47;;;;;;;77.53;44.77;;;-4.90;99.90;;;;;;4888392;29;20474;-78
2022/12/17 17:36:18;;;;;;;78.83;46.57;;;-4.90;99.90;;;;;;4889377;29;20464;-79
2022/12/17 17:38:46;;;;;;;78.93;47.57;;;-4.90;99.90;;;;;;4886792;29;20452;-79
2022/12/17 17:41:15;;;;;;;70.80;43.00;;;-4.90;99.90;;;;;;4883518;29;20470;-79
2022/12/17 17:43:42;;;;;;;78.97;46.10;;;-4.90;99.90;;;;;;4892460;29;20456;-78
2022/12/17 17:46:11;;;;;;;81.07;44.73;;;-4.90;99.90;;;;;;4883027;29;20454;-79
2022/12/17 17:48:38;;;;;;;73.37;42.80;;;-4.90;99.90;;;;;;4890796;29;20469;-79
2022/12/17 17:51:08;;;;;;;75.13;43.07;;;-5.00;99.90;;;;;;4883426;29;20474;-79
2022/12/17 17:53:36;;;;;;;65.90;41.00;;;-4.90;99.90;;;;;;4892452;29;20531;-78
2022/12/17 17:56:04;;;;;;;87.73;47.07;;;-4.90;99.90;;;;;;4882699;29;20455;-79
2022/12/17 17:58:31;;;;;;;65.13;41.20;;;-4.90;99.90;;;;;;4891810;29;20963;-79
2022/12/17 18:00:58;;;;;;;66.03;38.73;;;-4.90;99.90;;;;;;4885213;29;20479;-79
2022/12/17 18:03:25;;;;;;;68.27;41.13;;;-5.00;99.90;;;;;;4889511;29;20437;-79
2022/12/17 18:05:52;;;;;;;69.30;42.57;;;-5.00;99.90;;;;;;4886475;29;20490;-78
2022/12/17 18:08:19;;;;;;;85.27;44.07;;;-5.10;99.90;;;;;;4884997;29;20453;-79
2022/12/17 18:10:56;;;;;;;70.27;41.20;;;-5.20;99.90;;;;;;4883780;29;20488;-78
2022/12/17 18:16:09;;;;;;;76.50;45.63;;;-5.30;99.90;;;;;;4883131;29;20441;-79
2022/12/17 18:18:35;;;;;;;66.67;42.73;;;-5.20;99.90;;;;;;4887756;29;20470;-79
2022/12/17 18:21:04;;;;;;;71.57;42.90;;;-5.20;99.90;;;;;;4878887;29;20458;-78
2022/12/17 18:23:31;;;;;;;79.47;43.43;;;-5.20;99.90;;;;;;4888973;29;20454;-78
2022/12/17 18:26:08;;;;;;;92.23;47.47;;;-5.20;99.90;;;;;;4872974;29;20887;-78
2022/12/17 18:28:36;;;;;;;67.63;39.93;;;-5.30;99.90;;;;;;4905698;29;20520;-79
2022/12/17 18:31:08;;;;;;;87.03;44.03;;;-5.30;99.90;;;;;;4889034;29;20470;-79
2022/12/17 18:33:36;;;;;;;69.03;42.23;;;-5.20;99.90;;;;;;4891137;29;20481;-79
2022/12/17 18:36:08;;;;;;;65.70;43.27;;;-5.20;99.90;;;;;;4896429;29;20468;-79
2022/12/17 18:38:35;;;;;;;67.77;40.40;;;-5.30;99.90;;;;;;4885456;29;20456;-79
2022/12/17 18:43:50;;;;;;;66.40;39.77;;;-5.40;99.90;;;;;;4888217;29;20489;-79
2022/12/17 18:46:17;;;;;;;63.33;41.40;;;-5.40;99.90;;;;;;4888627;29;20441;-80
2022/12/17 18:48:44;;;;;;;70.27;42.47;;;-5.40;99.90;;;;;;4893134;29;20453;-79
2022/12/17 18:51:13;;;;;;;76.17;42.30;;;-5.50;99.90;;;;;;4887724;29;20475;-80
2022/12/17 18:53:41;;;;;;;70.87;41.17;;;-5.50;99.90;;;;;;4887160;29;20504;-81
2022/12/17 18:56:11;;;;;;;73.30;43.10;;;-5.50;99.90;;;;;;4886359;29;20958;-81
2022/12/17 18:58:38;;;;;;;82.50;42.73;;;-5.50;99.90;;;;;;4896496;29;20508;-80
2022/12/17 19:01:06;;;;;;;73.13;41.13;;;-5.50;99.90;;;;;;4888292;29;20479;-79
2022/12/17 19:03:33;;;;;;;65.03;38.60;;;-5.60;99.90;;;;;;4894396;29;20457;-78
2022/12/17 19:06:05;;;;;;;59.60;38.83;;;-5.60;99.90;;;;;;4892162;29;20440;-79
2022/12/17 19:08:35;;;;;;;64.60;39.70;;;-5.70;99.90;;;;;;4878896;29;20454;-80
2022/12/17 19:11:05;;;;;;;60.27;39.90;;;-5.60;99.90;;;;;;4873355;29;20561;-79
2022/12/17 19:13:34;;;;;;;58.93;38.27;;;-5.60;99.90;;;;;;4870608;29;20528;-78
2022/12/17 19:16:06;;;;;;;71.13;40.83;;;-5.60;99.90;;;;;;4891185;29;20826;-78
2022/12/17 19:18:33;;;;;;;67.60;37.40;;;-5.70;99.90;;;;;;4882527;29;20462;-78
2022/12/17 19:21:00;;;;;;;66.07;38.80;;;-5.80;99.90;;;;;;4894610;29;20520;-78
2022/12/17 19:23:28;;;;;;;63.90;40.17;;;-5.80;99.90;;;;;;4883682;29;20941;-78
2022/12/17 19:25:55;;;;;;;66.77;40.03;;;-5.80;99.90;;;;;;4896099;29;20873;-79
2022/12/17 19:28:22;;;;;;;67.40;41.17;;;-5.90;99.90;;;;;;4891406;29;20469;-81
2022/12/17 19:30:56;;;;;;;66.23;38.70;;;-5.90;99.90;;;;;;4888851;29;20473;-79
2022/12/17 19:33:23;;;;;;;70.63;40.10;;;-5.90;99.90;;;;;;4894008;29;20493;-79
2022/12/17 19:35:50;;;;;;;65.23;40.63;;;-6.00;99.90;;;;;;4887750;29;20822;-78
2022/12/17 19:38:16;;;;;;;63.10;40.47;;;-6.00;99.90;;;;;;4894734;29;21012;-78
2022/12/17 19:40:44;;;;;;;71.03;41.93;;;-6.00;99.90;;;;;;4888753;29;20449;-79
2022/12/17 19:43:12;;;;;;;61.70;39.63;;;-6.00;99.90;;;;;;4896466;29;20460;-79
2022/12/17 19:45:39;;;;;;;63.20;38.17;;;-5.90;99.90;;;;;;4888937;29;21122;-78
2022/12/17 19:48:07;;;;;;;61.63;39.77;;;-5.90;99.90;;;;;;4888671;29;20452;-78
2022/12/17 19:50:34;;;;;;;68.63;40.53;;;-5.90;99.90;;;;;;4893383;29;20488;-79
2022/12/17 19:53:01;;;;;;;65.00;39.80;;;-6.00;99.90;;;;;;4891866;29;20806;-79
2022/12/17 19:55:28;;;;;;;66.73;38.73;;;-5.90;99.90;;;;;;4885482;29;20457;-79
2022/12/17 19:57:55;;;;;;;99.23;53.23;;;-6.00;99.90;;;;;;4888273;29;20963;-79
2022/12/17 20:00:21;;;;;;;76.00;44.30;;;-6.00;99.90;;;;;;4891724;29;20443;-79
2022/12/17 20:02:48;;;;;;;69.97;41.63;;;-6.10;99.90;;;;;;4890200;29;20485;-79
2022/12/17 20:05:16;;;;;;;69.73;42.23;;;-6.10;99.90;;;;;;4891722;29;20434;-79
2022/12/17 20:07:43;;;;;;;61.27;39.50;;;-6.10;99.90;;;;;;4891814;29;20461;-79
2022/12/17 20:10:10;;;;;;;66.50;39.70;;;-6.10;99.90;;;;;;4887758;29;20675;-79
2022/12/17 20:12:37;;;;;;;56.53;38.30;;;-6.20;99.90;;;;;;4889618;29;20547;-79
2022/12/17 20:15:04;;;;;;;57.13;37.17;;;-6.20;99.90;;;;;;4896388;29;20487;-78
2022/12/17 20:17:31;;;;;;;64.23;39.50;;;-6.20;99.90;;;;;;4896364;29;21139;-79
2022/12/17 20:19:58;;;;;;;66.90;42.20;;;-6.20;99.90;;;;;;4893922;29;20890;-78
2022/12/17 20:22:26;;;;;;;101.67;55.93;;;-6.20;99.90;;;;;;4895209;29;20457;-79
2022/12/17 20:24:53;;;;;;;86.37;48.20;;;-6.20;99.90;;;;;;4892623;29;20462;-78
2022/12/17 20:27:20;;;;;;;68.37;40.77;;;-6.10;99.90;;;;;;4890138;29;20530;-78
2022/12/17 20:29:47;;;;;;;137.47;69.50;;;-6.10;99.90;;;;;;4890256;29;20530;-78
2022/12/17 20:32:18;;;;;;;96.83;49.60;;;-6.20;99.90;;;;;;4889071;29;20988;-78
2022/12/17 20:34:44;;;;;;;81.77;46.30;;;-6.30;99.90;;;;;;4891643;29;20486;-78
2022/12/17 20:37:11;;;;;;;72.73;43.00;;;-6.50;99.90;;;;;;4889609;29;20463;-78
2022/12/17 20:39:40;;;;;;;63.53;40.53;;;-6.50;99.90;;;;;;4891838;29;20473;-78
2022/12/17 20:42:08;;;;;;;68.30;39.87;;;-6.40;99.90;;;;;;4882413;29;20475;-77
2022/12/17 20:44:34;;;;;;;86.60;47.40;;;-6.50;99.90;;;;;;4896919;29;20448;-78
2022/12/17 20:47:01;;;;;;;71.97;43.80;;;-6.50;99.90;;;;;;4894470;29;20443;-78
2022/12/17 20:49:28;;;;;;;81.57;46.00;;;-6.50;99.90;;;;;;4887133;29;20514;-78
2022/12/17 20:51:55;;;;;;;90.70;48.70;;;-6.50;99.90;;;;;;4897296;29;20471;-78
2022/12/17 20:54:22;;;;;;;65.00;41.13;;;-6.70;99.90;;;;;;4888941;29;20491;-78
2022/12/17 20:56:50;;;;;;;62.90;37.73;;;-6.80;99.90;;;;;;4883978;29;20932;-78
2022/12/17 20:59:19;;;;;;;56.60;36.83;;;-6.80;99.90;;;;;;4889382;29;20984;-78
2022/12/17 21:01:46;;;;;;;54.80;35.83;;;-6.80;99.90;;;;;;4893959;29;20479;-78
2022/12/17 21:04:14;;;;;;;72.10;39.30;;;-6.90;99.90;;;;;;4889130;29;20448;-78
2022/12/17 21:06:43;;;;;;;64.33;40.43;;;-6.90;99.90;;;;;;4888520;29;20465;-78
2022/12/17 21:09:10;;;;;;;66.10;39.20;;;-6.90;99.90;;;;;;4889402;29;20438;-78
2022/12/17 21:11:38;;;;;;;65.10;39.67;;;-6.90;99.90;;;;;;4890506;29;20545;-78
2022/12/17 21:14:09;;;;;;;71.27;40.17;;;-7.00;99.90;;;;;;4887048;29;20504;-78
2022/12/17 21:16:37;;;;;;;60.60;35.93;;;-7.10;99.90;;;;;;4889773;29;20447;-77
2022/12/17 21:19:06;;;;;;;65.53;39.07;;;-7.20;99.90;;;;;;4883623;29;20459;-78
2022/12/17 21:21:36;;;;;;;75.27;40.57;;;-7.20;99.90;;;;;;4898365;29;20462;-78
2022/12/17 21:24:03;;;;;;;72.83;39.67;;;-7.30;99.90;;;;;;4887885;29;20438;-78
2022/12/17 21:26:32;;;;;;;61.50;39.23;;;-7.30;99.90;;;;;;4893295;29;20973;-78
2022/12/17 21:29:00;;;;;;;74.27;40.43;;;-7.30;99.90;;;;;;4887687;29;20454;-78
2022/12/17 21:31:30;;;;;;;70.93;40.93;;;-7.20;99.90;;;;;;4884008;29;20461;-78
2022/12/17 21:33:59;;;;;;;64.33;39.77;;;-7.20;99.90;;;;;;4888569;29;20521;-79
2022/12/17 21:36:27;;;;;;;72.27;41.07;;;-7.30;99.90;;;;;;4894360;29;20439;-78
2022/12/17 21:38:54;;;;;;;76.43;42.67;;;-7.20;99.90;;;;;;4887260;29;20932;-79
2022/12/17 21:41:23;;;;;;;75.03;43.03;;;-7.10;99.90;;;;;;4889086;29;20495;-78
2022/12/17 21:43:53;;;;;;;74.63;40.13;;;-7.10;99.90;;;;;;4888314;29;20451;-78
2022/12/17 21:46:20;;;;;;;77.07;41.53;;;-7.20;99.90;;;;;;4888336;29;20459;-79
2022/12/17 21:48:48;;;;;;;66.23;40.27;;;-7.20;99.90;;;;;;4889821;29;20463;-78
2022/12/17 21:51:15;;;;;;;78.70;39.57;;;-7.20;99.90;;;;;;4886971;29;20516;-79
2022/12/17 21:53:42;;;;;;;73.70;41.07;;;-7.20;99.90;;;;;;4891028;29;20457;-78
2022/12/17 21:56:11;;;;;;;65.83;39.67;;;-7.30;99.90;;;;;;4887250;29;20462;-79
2022/12/17 21:58:38;;;;;;;66.87;41.07;;;-7.30;99.90;;;;;;4889967;29;21027;-79
